Time;durP1;ratioP1;P1;durP2;ratioP2;P2;SDS_P1;SDS_P2;PMS_P1;PMS_P2;Temp;Humidity;BMP_temperature;BMP_pressure;BME280_temperature;BME280_humidity;BME280_pressure;Samples;Min_cycle;Max_cycle;Signal;HPM_P1;HPM_P2
2023/06/30 00:00:11;;;;;;;7.07;2.53;;;;;;;15.86;98.56;101394.84;5002713;28;20042;-62
2023/06/30 00:02:37;;;;;;;8.82;2.40;;;;;;;15.79;98.26;101393.09;5006905;28;20045;-63
2023/06/30 00:05:02;;;;;;;8.23;2.30;;;;;;;15.76;99.18;101399.16;5006308;28;20046;-62
2023/06/30 00:07:28;;;;;;;6.55;2.50;;;;;;;15.74;99.68;101397.72;5007510;28;20030;-62
2023/06/30 00:09:53;;;;;;;6.30;2.45;;;;;;;15.67;99.39;101394.28;5007843;28;20053;-62
2023/06/30 00:12:18;;;;;;;7.70;2.30;;;;;;;15.63;99.04;101387.53;5007414;28;20068;-62
2023/06/30 00:14:44;;;;;;;8.55;2.45;;;;;;;15.62;99.77;101391.41;5007948;28;20038;-63
2023/06/30 00:17:09;;;;;;;5.85;2.30;;;;;;;15.58;100.00;101388.28;5005958;28;20029;-62
2023/06/30 00:19:35;;;;;;;6.10;2.22;;;;;;;15.51;100.00;101402.31;5005561;28;20577;-62
2023/06/30 00:22:01;;;;;;;7.90;2.67;;;;;;;15.51;100.00;101394.00;5007840;28;20034;-63
2023/06/30 00:24:27;;;;;;;6.82;2.33;;;;;;;15.51;100.00;101384.81;5007523;28;20563;-63
2023/06/30 00:26:52;;;;;;;6.68;2.38;;;;;;;15.46;100.00;101391.13;5008159;28;20034;-62
2023/06/30 00:29:18;;;;;;;7.55;2.38;;;;;;;15.48;100.00;101388.94;5004451;28;20018;-62
2023/06/30 00:31:43;;;;;;;6.50;2.63;;;;;;;15.47;100.00;101390.03;5007245;28;20025;-63
2023/06/30 00:34:08;;;;;;;6.90;2.13;;;;;;;15.41;100.00;101382.75;4997636;28;20108;-63
2023/06/30 00:36:34;;;;;;;6.75;2.47;;;;;;;15.39;100.00;101387.69;5005457;28;20040;-62
2023/06/30 00:38:59;;;;;;;7.85;2.80;;;;;;;15.35;100.00;101389.25;5007065;28;20037;-62
2023/06/30 00:41:24;;;;;;;9.13;2.72;;;;;;;15.32;100.00;101389.78;5006523;28;20030;-63
2023/06/30 00:43:50;;;;;;;7.93;2.50;;;;;;;15.27;100.00;101384.16;5004622;28;20432;-63
2023/06/30 00:46:17;;;;;;;6.90;2.80;;;;;;;15.25;100.00;101389.06;5004610;28;20073;-62
2023/06/30 00:48:43;;;;;;;9.10;2.80;;;;;;;15.21;100.00;101390.69;5005261;28;20036;-62
2023/06/30 00:51:09;;;;;;;6.80;2.45;;;;;;;15.19;100.00;101388.13;5006546;28;20018;-62
2023/06/30 00:53:35;;;;;;;7.07;2.58;;;;;;;15.20;100.00;101378.75;5006983;28;20481;-62
2023/06/30 00:56:00;;;;;;;7.70;2.80;;;;;;;15.17;100.00;101383.97;5005141;28;20065;-63
2023/06/30 00:58:25;;;;;;;8.25;2.75;;;;;;;15.13;100.00;101380.84;5006456;28;20128;-64
2023/06/30 01:00:54;;;;;;;7.70;3.03;;;;;;;15.09;100.00;101387.94;5007765;28;20068;-63
2023/06/30 01:03:28;;;;;;;7.22;2.70;;;;;;;15.02;100.00;101384.50;5007213;28;20129;-62
2023/06/30 01:06:08;;;;;;;6.85;2.90;;;;;;;14.99;100.00;101393.28;5005912;28;20381;-62
2023/06/30 01:08:44;;;;;;;6.60;2.65;;;;;;;14.94;100.00;101394.03;5006466;28;20393;-62
2023/06/30 01:11:10;;;;;;;6.20;2.90;;;;;;;14.87;100.00;101392.50;5005832;28;20113;-62
2023/06/30 01:13:38;;;;;;;8.45;3.00;;;;;;;14.84;100.00;101390.22;4998206;28;20026;-62
2023/06/30 01:16:05;;;;;;;8.13;3.22;;;;;;;14.83;100.00;101388.53;5003864;28;20032;-64
2023/06/30 01:18:36;;;;;;;7.13;2.65;;;;;;;14.76;100.00;101389.53;5005230;28;20038;-63
2023/06/30 01:21:02;;;;;;;8.13;3.00;;;;;;;14.75;100.00;101390.63;5006133;28;20654;-62
2023/06/30 01:23:34;;;;;;;6.05;2.67;;;;;;;14.73;100.00;101387.25;5006198;28;20030;-62
2023/06/30 01:26:01;;;;;;;9.10;3.20;;;;;;;14.68;100.00;101389.91;5005070;28;20036;-63
2023/06/30 01:28:28;;;;;;;7.38;2.63;;;;;;;14.61;100.00;101391.16;5006225;28;20044;-63
2023/06/30 01:30:55;;;;;;;6.40;3.08;;;;;;;14.64;100.00;101390.63;5006070;28;20110;-63
2023/06/30 01:33:23;;;;;;;6.57;3.15;;;;;;;14.68;100.00;101397.38;5005227;28;20026;-63
2023/06/30 01:35:49;;;;;;;8.80;2.88;;;;;;;14.60;100.00;101389.44;5005247;28;20060;-63
2023/06/30 01:38:15;;;;;;;9.18;3.10;;;;;;;14.59;100.00;101394.13;5005850;28;20057;-62
2023/06/30 01:40:40;;;;;;;7.63;2.88;;;;;;;14.56;100.00;101391.88;5006054;28;20030;-63
2023/06/30 01:43:05;;;;;;;8.10;3.08;;;;;;;14.57;100.00;101392.72;5004141;28;20080;-62
2023/06/30 01:45:32;;;;;;;7.25;3.05;;;;;;;14.52;100.00;101390.69;5005478;28;20033;-62
2023/06/30 01:47:58;;;;;;;9.00;2.97;;;;;;;14.50;100.00;101384.56;5006465;28;20034;-62
2023/06/30 01:50:29;;;;;;;7.13;2.65;;;;;;;14.50;100.00;101390.09;5006749;28;20053;-63
2023/06/30 01:52:55;;;;;;;6.10;2.83;;;;;;;14.42;100.00;101380.22;5005408;28;20074;-63
2023/06/30 01:55:20;;;;;;;8.93;3.10;;;;;;;14.42;100.00;101382.97;5005775;28;20784;-62
2023/06/30 01:57:45;;;;;;;8.32;3.30;;;;;;;14.36;100.00;101385.88;5005204;28;20022;-62
2023/06/30 02:00:11;;;;;;;7.78;2.92;;;;;;;14.31;100.00;101389.38;5005402;28;20084;-62
2023/06/30 02:02:37;;;;;;;6.97;2.67;;;;;;;14.23;100.00;101373.97;5004705;28;20042;-62
2023/06/30 02:05:02;;;;;;;7.10;2.83;;;;;;;14.21;100.00;101373.41;5004211;28;20081;-62
2023/06/30 02:07:27;;;;;;;9.80;3.13;;;;;;;14.15;100.00;101377.13;5008855;28;20117;-62
2023/06/30 02:09:53;;;;;;;8.77;3.17;;;;;;;14.12;100.00;101369.31;5010233;28;20133;-62
2023/06/30 02:12:18;;;;;;;7.30;3.10;;;;;;;14.07;100.00;101380.25;5008669;28;20054;-63
2023/06/30 02:14:43;;;;;;;8.30;2.83;;;;;;;14.03;100.00;101373.50;5009665;28;20033;-63
2023/06/30 02:17:10;;;;;;;7.47;2.90;;;;;;;14.00;100.00;101374.03;5009357;28;20033;-63
2023/06/30 02:19:35;;;;;;;7.45;2.83;;;;;;;13.94;100.00;101370.28;5009350;28;20038;-62
2023/06/30 02:22:00;;;;;;;7.72;3.17;;;;;;;13.94;100.00;101372.22;5009236;28;20381;-62
2023/06/30 02:24:26;;;;;;;7.30;2.45;;;;;;;13.91;100.00;101376.28;5009764;28;20041;-63
2023/06/30 02:26:51;;;;;;;8.07;3.00;;;;;;;13.88;100.00;101371.22;5008918;28;20079;-62
2023/06/30 02:29:16;;;;;;;7.28;2.85;;;;;;;13.86;100.00;101381.69;5009450;28;20343;-62
2023/06/30 02:31:42;;;;;;;9.20;3.33;;;;;;;13.82;100.00;101377.72;5009674;28;20481;-62
2023/06/30 02:34:07;;;;;;;10.27;2.90;;;;;;;13.79;100.00;101380.97;5007750;28;20026;-63
2023/06/30 02:36:32;;;;;;;6.30;2.67;;;;;;;13.77;100.00;101380.34;5009147;28;20121;-62
2023/06/30 02:38:57;;;;;;;7.88;2.80;;;;;;;13.74;100.00;101386.38;5008768;28;20037;-62
2023/06/30 02:43:51;;;;;;;10.25;3.22;;;;;;;13.70;100.00;101396.22;4985211;28;20046;-62
2023/06/30 02:46:17;;;;;;;6.25;2.70;;;;;;;13.66;100.00;101395.00;4989126;28;20357;-62
2023/06/30 02:48:42;;;;;;;6.40;2.60;;;;;;;13.61;100.00;101397.63;4987428;28;20030;-63
2023/06/30 02:51:07;;;;;;;7.80;2.95;;;;;;;13.56;100.00;101398.34;4988187;28;20022;-62
2023/06/30 02:53:33;;;;;;;7.93;2.92;;;;;;;13.52;100.00;101401.81;4988849;28;20062;-62
2023/06/30 02:55:58;;;;;;;6.82;2.85;;;;;;;13.50;100.00;101399.28;4989661;28;20037;-62
